createdAt,value
2017-07-31T00:02:23.528Z,3.80
2017-07-31T00:04:51.310Z,3.93
2017-07-31T00:07:19.004Z,3.33
2017-07-31T00:09:46.753Z,4.60
2017-07-31T00:12:14.526Z,3.63
2017-07-31T00:14:42.280Z,3.70
2017-07-31T00:17:10.032Z,4.33
2017-07-31T00:19:37.878Z,3.10
2017-07-31T00:22:05.600Z,3.90
2017-07-31T00:24:33.347Z,4.23
2017-07-31T00:27:01.130Z,3.60
2017-07-31T00:29:28.852Z,3.97
2017-07-31T00:31:56.639Z,4.00
2017-07-31T00:34:24.421Z,4.23
2017-07-31T00:36:52.104Z,3.77
2017-07-31T00:39:19.830Z,3.43
2017-07-31T00:41:47.561Z,4.20
2017-07-31T00:44:15.310Z,4.13
2017-07-31T00:46:43.125Z,3.60
2017-07-31T00:49:10.835Z,3.67
2017-07-31T00:51:38.534Z,3.60
2017-07-31T00:54:06.395Z,3.80
2017-07-31T00:56:34.109Z,3.90
2017-07-31T00:59:01.887Z,3.87
2017-07-31T01:01:29.651Z,4.10
2017-07-31T01:03:57.392Z,4.10
2017-07-31T01:06:25.192Z,4.13
2017-07-31T01:08:52.895Z,3.50
2017-07-31T01:11:20.571Z,3.10
2017-07-31T01:13:48.310Z,4.20
2017-07-31T01:16:16.065Z,3.70
2017-07-31T01:18:43.845Z,3.87
2017-07-31T01:21:11.866Z,3.70
2017-07-31T01:23:39.656Z,3.57
2017-07-31T01:26:07.431Z,3.60
2017-07-31T01:28:35.203Z,3.80
2017-07-31T01:31:02.918Z,3.90
2017-07-31T01:33:30.654Z,3.90
2017-07-31T01:35:58.423Z,3.30
2017-07-31T01:38:26.204Z,2.93
2017-07-31T01:40:53.946Z,3.53
2017-07-31T01:43:21.641Z,3.60
2017-07-31T01:45:49.509Z,3.63
2017-07-31T01:48:17.288Z,4.00
2017-07-31T01:50:45.065Z,4.07
2017-07-31T01:53:12.838Z,3.27
2017-07-31T01:55:40.629Z,3.57
2017-07-31T01:58:08.420Z,4.23
2017-07-31T02:00:36.304Z,3.13
2017-07-31T02:03:04.440Z,3.80
2017-07-31T02:05:32.221Z,4.47
2017-07-31T02:08:00.233Z,4.13
2017-07-31T02:10:27.940Z,3.80
2017-07-31T02:12:55.644Z,3.97
2017-07-31T02:15:23.413Z,3.47
2017-07-31T02:17:51.160Z,2.97
2017-07-31T02:20:18.924Z,3.93
2017-07-31T02:22:46.758Z,3.70
2017-07-31T02:25:14.480Z,3.60
2017-07-31T02:27:42.192Z,3.77
2017-07-31T02:30:09.973Z,4.97
2017-07-31T02:32:37.694Z,3.37
2017-07-31T02:35:05.444Z,2.83
2017-07-31T02:37:33.257Z,3.87
2017-07-31T02:40:01.026Z,3.63
2017-07-31T02:42:28.718Z,3.83
2017-07-31T02:44:56.519Z,3.10
2017-07-31T02:47:24.253Z,3.20
2017-07-31T02:49:51.995Z,3.93
2017-07-31T02:52:19.906Z,3.47
2017-07-31T02:54:47.622Z,3.27
2017-07-31T02:57:15.342Z,3.93
2017-07-31T02:59:43.895Z,4.90
2017-07-31T03:02:11.757Z,4.70
2017-07-31T03:04:39.702Z,4.07
2017-07-31T03:07:07.855Z,3.90
2017-07-31T03:09:35.885Z,3.40
2017-07-31T03:12:03.953Z,3.20
2017-07-31T03:14:31.922Z,4.80
2017-07-31T03:16:59.995Z,3.47
2017-07-31T03:19:28.012Z,3.37
2017-07-31T03:21:55.692Z,3.87
2017-07-31T03:24:23.410Z,3.93
2017-07-31T03:26:51.205Z,4.40
2017-07-31T03:29:19.001Z,3.80
2017-07-31T03:31:46.755Z,3.23
2017-07-31T03:34:14.487Z,3.70
2017-07-31T03:36:42.185Z,3.53
2017-07-31T03:39:09.892Z,4.23
2017-07-31T03:41:37.762Z,3.73
2017-07-31T03:44:05.454Z,3.33
2017-07-31T03:46:33.176Z,4.07
2017-07-31T03:49:01.027Z,4.23
2017-07-31T03:51:28.715Z,3.13
2017-07-31T03:53:56.466Z,3.60
2017-07-31T03:56:24.192Z,4.00
2017-07-31T03:58:52.018Z,4.60
2017-07-31T04:01:19.819Z,3.53
2017-07-31T04:03:47.525Z,3.30
2017-07-31T04:06:15.351Z,3.83
2017-07-31T04:08:43.097Z,4.07
2017-07-31T04:11:10.856Z,4.33
2017-07-31T04:13:38.565Z,4.80
2017-07-31T04:16:06.315Z,3.80
2017-07-31T04:18:34.002Z,3.80
2017-07-31T04:21:01.780Z,4.10
2017-07-31T04:23:29.480Z,4.13
2017-07-31T04:25:57.298Z,3.97
2017-07-31T04:28:25.329Z,4.00
2017-07-31T04:30:53.084Z,3.93
2017-07-31T04:33:20.848Z,3.63
2017-07-31T04:35:48.638Z,4.07
2017-07-31T04:38:16.361Z,4.10
2017-07-31T04:40:44.081Z,4.10
2017-07-31T04:43:11.760Z,3.50
2017-07-31T04:45:39.497Z,4.93
2017-07-31T04:48:08.501Z,3.40
2017-07-31T04:50:36.736Z,4.10
2017-07-31T04:53:04.566Z,4.50
2017-07-31T04:55:32.290Z,3.57
2017-07-31T04:58:00.101Z,2.80
2017-07-31T05:00:27.885Z,3.97
2017-07-31T05:02:55.584Z,4.83
2017-07-31T05:05:23.305Z,3.60
2017-07-31T05:07:51.035Z,3.50
2017-07-31T05:10:18.734Z,3.60
2017-07-31T05:12:46.461Z,4.07
2017-07-31T05:15:14.219Z,3.80
2017-07-31T05:17:41.924Z,3.70
2017-07-31T05:20:09.645Z,4.80
2017-07-31T05:22:37.429Z,5.97
2017-07-31T05:25:05.147Z,6.40
2017-07-31T05:27:32.831Z,7.00
2017-07-31T05:30:00.628Z,7.90
2017-07-31T05:32:28.409Z,4.33
2017-07-31T05:34:56.174Z,5.30
2017-07-31T05:37:24.473Z,4.30
2017-07-31T05:39:53.100Z,3.50
2017-07-31T05:42:20.833Z,4.07
2017-07-31T05:44:51.509Z,4.53
2017-07-31T05:47:19.244Z,4.00
2017-07-31T05:49:46.950Z,5.30
2017-07-31T05:52:14.728Z,4.60
2017-07-31T05:54:42.516Z,6.13
2017-07-31T05:57:10.307Z,4.60
2017-07-31T05:59:38.055Z,5.93
2017-07-31T06:02:06.483Z,5.03
2017-07-31T06:04:34.222Z,5.23
2017-07-31T06:07:02.045Z,5.80
2017-07-31T06:09:29.806Z,4.37
2017-07-31T06:11:57.519Z,5.53
2017-07-31T06:14:25.252Z,4.20
2017-07-31T06:16:53.020Z,4.83
2017-07-31T06:19:20.993Z,5.30
2017-07-31T06:21:49.125Z,4.23
2017-07-31T06:24:16.923Z,4.60
2017-07-31T06:26:44.665Z,4.17
2017-07-31T06:29:12.357Z,3.80
2017-07-31T06:31:40.097Z,3.67
2017-07-31T06:34:07.834Z,4.47
2017-07-31T06:36:35.573Z,4.17
2017-07-31T06:39:03.461Z,4.37
2017-07-31T06:41:31.248Z,3.50
2017-07-31T06:43:59.056Z,4.00
2017-07-31T06:46:26.910Z,4.40
2017-07-31T06:48:54.693Z,4.60
2017-07-31T06:51:22.403Z,3.30
2017-07-31T06:53:50.212Z,3.70
2017-07-31T06:56:17.986Z,4.73
2017-07-31T06:58:45.716Z,3.00
2017-07-31T07:01:13.458Z,3.37
2017-07-31T07:03:41.413Z,3.47
2017-07-31T07:06:09.182Z,2.80
2017-07-31T07:08:37.045Z,2.83
2017-07-31T07:11:04.813Z,5.93
2017-07-31T07:13:32.528Z,2.40
2017-07-31T07:16:00.230Z,2.33
2017-07-31T07:18:27.940Z,2.67
2017-07-31T07:20:55.708Z,2.67
2017-07-31T07:23:23.443Z,2.70
2017-07-31T07:25:51.187Z,2.90
2017-07-31T07:28:18.946Z,2.40
2017-07-31T07:30:46.669Z,2.30
2017-07-31T07:33:14.528Z,2.50
2017-07-31T07:35:42.233Z,2.33
2017-07-31T07:38:09.952Z,2.07
2017-07-31T07:40:37.709Z,2.33
2017-07-31T07:43:05.486Z,2.40
2017-07-31T07:45:33.202Z,2.47
2017-07-31T07:48:01.055Z,2.43
2017-07-31T07:50:29.374Z,3.17
2017-07-31T07:52:57.196Z,2.70
2017-07-31T07:55:25.015Z,4.87
2017-07-31T07:57:52.752Z,2.80
2017-07-31T08:00:20.544Z,2.47
2017-07-31T08:02:48.315Z,2.40
2017-07-31T08:05:16.038Z,2.30
2017-07-31T08:07:43.824Z,2.87
2017-07-31T08:10:11.645Z,2.73
2017-07-31T08:12:39.360Z,2.53
2017-07-31T08:15:07.083Z,2.40
2017-07-31T08:17:34.851Z,2.50
2017-07-31T08:20:02.574Z,2.53
2017-07-31T08:22:30.355Z,3.00
2017-07-31T08:24:58.107Z,2.63
2017-07-31T08:27:25.844Z,2.53
2017-07-31T08:29:53.656Z,2.67
2017-07-31T08:32:21.344Z,2.90
2017-07-31T08:34:49.160Z,2.10
2017-07-31T08:37:16.908Z,2.23
2017-07-31T08:39:44.688Z,2.47
2017-07-31T08:42:13.104Z,2.20
2017-07-31T08:44:40.821Z,2.50
2017-07-31T08:47:08.699Z,2.73
2017-07-31T08:49:36.468Z,2.80
2017-07-31T08:52:04.265Z,2.30
2017-07-31T08:54:31.994Z,1.80
2017-07-31T08:56:59.774Z,2.60
2017-07-31T08:59:27.594Z,2.27
2017-07-31T09:01:55.307Z,2.40
2017-07-31T09:04:23.156Z,1.90
2017-07-31T09:06:50.923Z,1.80
2017-07-31T09:09:18.628Z,2.43
2017-07-31T09:11:46.361Z,2.23
2017-07-31T09:14:14.134Z,1.70
2017-07-31T09:16:41.840Z,2.23
2017-07-31T09:19:09.664Z,1.70
2017-07-31T09:21:37.375Z,1.50
2017-07-31T09:24:05.144Z,1.60
2017-07-31T09:26:32.945Z,1.70
2017-07-31T09:29:00.778Z,1.57
2017-07-31T09:31:28.517Z,1.73
2017-07-31T09:33:56.272Z,2.30
2017-07-31T09:36:24.020Z,2.10
2017-07-31T09:38:51.814Z,1.90
2017-07-31T09:41:19.479Z,1.43
2017-07-31T09:43:47.243Z,1.63
2017-07-31T09:46:14.931Z,1.70
2017-07-31T09:48:42.635Z,2.67
2017-07-31T09:51:10.390Z,1.70
2017-07-31T09:53:38.212Z,1.93
2017-07-31T09:56:05.965Z,2.07
2017-07-31T09:58:33.653Z,1.70
2017-07-31T10:01:01.362Z,1.33
2017-07-31T10:03:29.176Z,2.13
2017-07-31T10:05:56.870Z,2.20
2017-07-31T10:08:24.566Z,2.20
2017-07-31T10:10:52.339Z,1.77
2017-07-31T10:13:20.043Z,1.57
2017-07-31T10:15:47.788Z,2.00
2017-07-31T10:18:15.530Z,1.90
2017-07-31T10:20:43.286Z,1.87
2017-07-31T10:23:11.050Z,2.03
2017-07-31T10:25:38.773Z,1.83
2017-07-31T10:28:06.463Z,2.23
2017-07-31T10:30:35.390Z,2.30
2017-07-31T10:33:03.132Z,2.97
2017-07-31T10:35:30.943Z,2.30
2017-07-31T10:37:58.705Z,2.50
2017-07-31T10:40:26.439Z,1.90
2017-07-31T10:42:54.294Z,1.83
2017-07-31T10:45:22.002Z,2.00
2017-07-31T10:47:49.886Z,1.80
2017-07-31T10:50:17.691Z,1.83
2017-07-31T10:52:45.431Z,1.67
2017-07-31T10:55:13.431Z,1.53
2017-07-31T10:57:41.161Z,1.13
2017-07-31T11:00:08.929Z,1.37
2017-07-31T11:02:36.772Z,2.40
2017-07-31T11:05:04.492Z,2.30
2017-07-31T11:07:32.274Z,2.17
2017-07-31T11:10:00.366Z,2.03
2017-07-31T11:12:28.632Z,1.30
2017-07-31T11:14:56.370Z,2.20
2017-07-31T11:17:24.266Z,2.53
2017-07-31T11:19:51.990Z,1.73
2017-07-31T11:22:19.824Z,2.53
2017-07-31T11:24:47.665Z,1.80
2017-07-31T11:27:15.341Z,1.43
2017-07-31T11:29:43.059Z,1.73
2017-07-31T11:32:11.514Z,1.80
2017-07-31T11:34:39.405Z,2.30
2017-07-31T11:37:07.122Z,1.63
2017-07-31T11:39:34.890Z,2.53
2017-07-31T11:42:02.820Z,1.70
2017-07-31T11:44:30.530Z,1.87
2017-07-31T11:46:58.719Z,2.13
2017-07-31T11:49:26.470Z,1.43
2017-07-31T11:51:54.237Z,1.83
2017-07-31T11:54:22.091Z,1.63
2017-07-31T11:56:49.802Z,1.43
2017-07-31T11:59:17.543Z,1.63
2017-07-31T12:01:45.307Z,1.53
2017-07-31T12:04:13.021Z,1.47
2017-07-31T12:06:41.951Z,2.17
2017-07-31T12:09:09.718Z,1.30
2017-07-31T12:11:38.106Z,1.20
2017-07-31T12:14:06.982Z,1.40
2017-07-31T12:16:34.736Z,1.20
2017-07-31T12:19:02.484Z,1.37
2017-07-31T12:21:30.229Z,1.30
2017-07-31T12:23:58.027Z,1.63
2017-07-31T12:26:25.832Z,2.20
2017-07-31T12:28:53.578Z,1.90
2017-07-31T12:31:21.310Z,1.53
2017-07-31T12:33:49.161Z,2.07
2017-07-31T12:36:16.922Z,2.13
2017-07-31T12:38:44.692Z,1.30
2017-07-31T12:41:12.401Z,1.33
2017-07-31T12:43:40.197Z,1.50
2017-07-31T12:46:07.965Z,1.47
2017-07-31T12:48:35.697Z,1.40
2017-07-31T12:51:03.529Z,1.13
2017-07-31T12:53:31.280Z,3.03
2017-07-31T12:55:59.005Z,1.57
2017-07-31T12:58:26.783Z,1.90
2017-07-31T13:00:54.566Z,2.23
2017-07-31T13:03:22.428Z,1.90
2017-07-31T13:05:50.182Z,1.80
2017-07-31T13:08:17.873Z,2.53
2017-07-31T13:10:46.679Z,1.67
2017-07-31T13:13:14.459Z,2.17
2017-07-31T13:15:42.196Z,2.67
2017-07-31T13:18:09.960Z,1.97
2017-07-31T13:20:37.734Z,1.23
2017-07-31T13:23:05.635Z,1.10
2017-07-31T13:25:33.564Z,1.80
2017-07-31T13:28:01.403Z,2.00
2017-07-31T13:30:29.341Z,1.90
2017-07-31T13:32:57.592Z,2.27
2017-07-31T13:35:25.495Z,1.73
2017-07-31T13:37:53.461Z,1.80
2017-07-31T13:40:21.495Z,1.50
2017-07-31T13:42:49.597Z,1.50
2017-07-31T13:45:17.497Z,1.80
2017-07-31T13:47:45.481Z,2.30
2017-07-31T13:50:13.335Z,2.00
2017-07-31T13:52:41.225Z,1.50
2017-07-31T13:55:09.159Z,1.40
2017-07-31T13:57:37.082Z,1.67
2017-07-31T14:00:05.031Z,1.83
2017-07-31T14:02:32.959Z,1.30
2017-07-31T14:05:01.227Z,1.80
2017-07-31T14:07:29.074Z,1.60
2017-07-31T14:09:56.889Z,1.50
2017-07-31T14:12:24.913Z,1.63
2017-07-31T14:14:52.771Z,1.17
2017-07-31T14:17:20.661Z,1.33
2017-07-31T14:19:48.588Z,1.50
2017-07-31T14:22:16.451Z,2.03
2017-07-31T14:24:44.320Z,2.07
2017-07-31T14:27:12.161Z,1.47
2017-07-31T14:29:39.984Z,1.53
2017-07-31T14:32:07.908Z,2.43
2017-07-31T14:34:35.687Z,2.10
2017-07-31T14:37:03.462Z,1.83
2017-07-31T14:39:31.253Z,1.90
2017-07-31T14:41:59.205Z,2.13
2017-07-31T14:44:26.991Z,1.83
2017-07-31T14:46:54.907Z,1.90
2017-07-31T14:49:22.879Z,1.77
2017-07-31T14:51:51.900Z,1.70
2017-07-31T14:54:19.840Z,1.93
2017-07-31T14:56:47.725Z,2.77
2017-07-31T14:59:15.580Z,1.63
2017-07-31T15:01:43.439Z,2.10
2017-07-31T15:04:11.160Z,1.90
2017-07-31T15:06:39.032Z,2.10
2017-07-31T15:09:06.928Z,2.60
2017-07-31T15:11:34.649Z,1.83
2017-07-31T15:14:02.424Z,2.07
2017-07-31T15:16:30.214Z,3.00
2017-07-31T15:18:58.977Z,2.67
2017-07-31T15:21:26.785Z,2.40
2017-07-31T15:23:54.761Z,2.07
2017-07-31T15:26:22.443Z,2.10
2017-07-31T15:28:50.146Z,2.60
2017-07-31T15:31:17.923Z,2.40
2017-07-31T15:33:45.647Z,2.17
2017-07-31T15:36:13.422Z,2.20
2017-07-31T15:38:41.156Z,1.87
2017-07-31T15:41:08.962Z,2.60
2017-07-31T15:43:36.657Z,2.20
2017-07-31T15:46:04.416Z,1.67
2017-07-31T15:48:32.198Z,1.90
2017-07-31T15:51:00.005Z,2.40
2017-07-31T15:53:27.710Z,2.20
2017-07-31T15:55:55.766Z,2.63
2017-07-31T15:58:23.579Z,2.30
2017-07-31T16:00:51.356Z,1.30
2017-07-31T16:03:19.229Z,2.37
2017-07-31T16:05:47.012Z,1.57
2017-07-31T16:08:14.713Z,2.20
2017-07-31T16:10:42.524Z,2.77
2017-07-31T16:13:10.361Z,2.20
2017-07-31T16:15:38.066Z,2.00
2017-07-31T16:18:05.859Z,2.80
2017-07-31T16:20:33.752Z,2.17
2017-07-31T16:23:01.524Z,2.30
2017-07-31T16:25:29.204Z,2.10
2017-07-31T16:27:57.098Z,2.47
2017-07-31T16:30:24.953Z,2.90
2017-07-31T16:32:52.651Z,2.80
2017-07-31T16:35:21.477Z,2.80
2017-07-31T16:37:49.367Z,3.23
2017-07-31T16:40:28.668Z,2.60
2017-07-31T16:43:08.203Z,2.50
2017-07-31T16:45:53.951Z,3.40
2017-07-31T16:48:31.596Z,3.30
2017-07-31T16:50:59.460Z,2.20
2017-07-31T16:53:27.483Z,3.10
2017-07-31T16:55:55.289Z,2.60
2017-07-31T16:58:23.089Z,2.80
2017-07-31T17:00:50.944Z,2.47
2017-07-31T17:03:18.719Z,3.13
2017-07-31T17:05:46.518Z,4.87
2017-07-31T17:08:14.703Z,4.33
2017-07-31T17:10:42.416Z,3.57
2017-07-31T17:13:10.121Z,4.90
2017-07-31T17:15:37.886Z,3.27
2017-07-31T17:18:05.600Z,2.77
2017-07-31T17:20:33.328Z,3.17
2017-07-31T17:23:01.116Z,2.80
2017-07-31T17:25:28.912Z,2.77
2017-07-31T17:27:56.643Z,2.60
2017-07-31T17:30:24.416Z,2.60
2017-07-31T17:32:52.177Z,2.20
2017-07-31T17:35:19.984Z,3.37
2017-07-31T17:37:47.803Z,3.00
2017-07-31T17:40:15.524Z,6.30
2017-07-31T17:42:43.212Z,2.97
2017-07-31T17:45:10.959Z,2.67
2017-07-31T17:47:39.581Z,2.80
2017-07-31T17:50:07.298Z,3.00
2017-07-31T17:52:35.197Z,4.00
2017-07-31T17:55:02.942Z,2.67
2017-07-31T17:57:31.189Z,2.87
2017-07-31T17:59:59.013Z,4.73
2017-07-31T18:02:26.871Z,3.17
2017-07-31T18:04:54.573Z,3.53
2017-07-31T18:07:22.963Z,3.80
2017-07-31T18:09:50.752Z,3.40
2017-07-31T18:12:18.551Z,3.00
2017-07-31T18:14:46.360Z,2.03
2017-07-31T18:17:14.084Z,2.83
2017-07-31T18:19:41.914Z,2.80
2017-07-31T18:22:09.636Z,3.83
2017-07-31T18:24:37.600Z,2.90
2017-07-31T18:27:05.630Z,2.57
2017-07-31T18:29:33.385Z,3.20
2017-07-31T18:32:01.956Z,2.83
2017-07-31T18:34:29.851Z,2.73
2017-07-31T18:36:57.673Z,2.77
2017-07-31T18:39:25.413Z,3.60
2017-07-31T18:41:53.317Z,2.70
2017-07-31T18:44:21.049Z,3.20
2017-07-31T18:46:49.358Z,3.90
2017-07-31T18:49:17.169Z,3.00
2017-07-31T18:51:45.067Z,3.80
2017-07-31T18:54:12.818Z,4.20
2017-07-31T18:56:40.589Z,3.07
2017-07-31T18:59:08.362Z,3.13
2017-07-31T19:01:36.101Z,2.93
2017-07-31T19:04:03.875Z,3.10
2017-07-31T19:06:31.632Z,2.80
2017-07-31T19:08:59.409Z,3.40
2017-07-31T19:11:27.626Z,3.70
2017-07-31T19:13:56.419Z,3.50
2017-07-31T19:16:24.286Z,3.53
2017-07-31T19:18:52.082Z,3.03
2017-07-31T19:21:19.871Z,3.17
2017-07-31T19:23:47.737Z,4.27
2017-07-31T19:26:15.625Z,4.13
2017-07-31T19:28:43.411Z,3.90
2017-07-31T19:31:11.335Z,3.60
2017-07-31T19:33:39.126Z,3.70
2017-07-31T19:36:06.919Z,3.60
2017-07-31T19:38:34.675Z,3.60
2017-07-31T19:41:02.590Z,3.70
2017-07-31T19:43:31.442Z,3.40
2017-07-31T19:45:59.200Z,3.97
2017-07-31T19:48:26.937Z,4.03
2017-07-31T19:50:54.819Z,3.90
2017-07-31T19:53:22.564Z,4.13
2017-07-31T19:55:50.323Z,3.07
2017-07-31T19:58:18.793Z,3.27
2017-07-31T20:00:46.560Z,3.97
2017-07-31T20:03:14.278Z,3.67
2017-07-31T20:05:43.069Z,3.73
2017-07-31T20:08:11.731Z,3.80
2017-07-31T20:10:40.526Z,3.90
2017-07-31T20:13:08.889Z,3.20
2017-07-31T20:15:36.631Z,3.40
2017-07-31T20:18:04.428Z,2.57
2017-07-31T20:20:32.954Z,3.17
2017-07-31T20:23:00.948Z,4.43
2017-07-31T20:25:28.716Z,3.60
2017-07-31T20:27:56.399Z,3.70
2017-07-31T20:30:24.222Z,4.50
2017-07-31T20:32:51.970Z,4.23
2017-07-31T20:35:19.684Z,3.77
2017-07-31T20:37:47.478Z,3.33
2017-07-31T20:40:15.192Z,5.43
2017-07-31T20:42:42.894Z,4.20
2017-07-31T20:45:10.713Z,3.43
2017-07-31T20:47:38.429Z,3.50
2017-07-31T20:50:06.177Z,4.37
2017-07-31T20:52:34.762Z,3.73
2017-07-31T20:55:02.479Z,4.30
2017-07-31T20:57:30.945Z,4.17
2017-07-31T21:00:00.047Z,4.47
2017-07-31T21:02:27.812Z,4.17
2017-07-31T21:04:55.626Z,3.60
2017-07-31T21:07:23.320Z,3.97
2017-07-31T21:09:51.042Z,3.63
2017-07-31T21:12:18.784Z,5.47
2017-07-31T21:14:46.839Z,3.70
2017-07-31T21:17:14.647Z,4.20
2017-07-31T21:19:42.521Z,3.40
2017-07-31T21:22:10.973Z,3.97
2017-07-31T21:24:38.709Z,3.90
2017-07-31T21:27:06.588Z,3.50
2017-07-31T21:29:34.296Z,4.40
2017-07-31T21:32:02.105Z,4.00
2017-07-31T21:34:29.901Z,4.23
2017-07-31T21:36:57.641Z,4.20
2017-07-31T21:39:26.590Z,4.30
2017-07-31T21:41:55.574Z,3.90
2017-07-31T21:44:23.328Z,4.30
2017-07-31T21:46:52.183Z,4.00
2017-07-31T21:49:19.956Z,3.20
2017-07-31T21:51:47.675Z,4.57
2017-07-31T21:54:15.500Z,4.33
2017-07-31T21:56:43.326Z,3.50
2017-07-31T21:59:11.168Z,3.80
2017-07-31T22:01:38.980Z,3.70
2017-07-31T22:04:06.742Z,3.73
2017-07-31T22:06:35.314Z,3.30
2017-07-31T22:09:03.073Z,3.47
2017-07-31T22:11:32.582Z,3.33
2017-07-31T22:14:01.012Z,3.60
2017-07-31T22:16:34.447Z,3.93
2017-07-31T22:19:03.418Z,4.37
2017-07-31T22:22:04.022Z,3.50
2017-07-31T22:24:32.779Z,4.40
2017-07-31T22:27:00.517Z,4.13
2017-07-31T22:29:29.515Z,3.70
2017-07-31T22:31:57.805Z,3.80
2017-07-31T22:34:27.682Z,3.73
2017-07-31T22:36:56.391Z,4.70
2017-07-31T22:39:24.233Z,3.20
2017-07-31T22:41:51.994Z,3.90
2017-07-31T22:44:20.035Z,3.70
2017-07-31T22:46:47.738Z,5.20
2017-07-31T22:49:15.851Z,3.73
2017-07-31T22:51:44.620Z,4.57
2017-07-31T22:54:12.446Z,3.63
2017-07-31T22:56:40.328Z,4.33
2017-07-31T22:59:08.142Z,4.60
2017-07-31T23:01:35.977Z,3.87
2017-07-31T23:04:04.464Z,5.53
2017-07-31T23:06:32.238Z,5.00
2017-07-31T23:09:00.016Z,4.47
2017-07-31T23:11:27.734Z,4.30
2017-07-31T23:13:55.846Z,3.70
2017-07-31T23:16:23.597Z,3.70
2017-07-31T23:18:52.553Z,3.70
2017-07-31T23:21:20.333Z,4.43
2017-07-31T23:23:48.121Z,4.17
2017-07-31T23:26:15.961Z,4.37
2017-07-31T23:28:44.002Z,4.10
2017-07-31T23:33:54.594Z,5.33
2017-07-31T23:36:23.268Z,3.53
2017-07-31T23:38:50.990Z,4.63
2017-07-31T23:41:18.776Z,5.43
2017-07-31T23:43:47.107Z,3.60
2017-07-31T23:46:15.632Z,4.60
2017-07-31T23:48:44.403Z,4.37
2017-07-31T23:51:12.195Z,3.90
2017-07-31T23:53:40.930Z,3.50
2017-07-31T23:56:08.676Z,4.70
2017-07-31T23:58:36.455Z,4.40
